createdAt,value
2018-05-04T00:00:28.127Z,1009.90
2018-05-04T00:01:28.077Z,1009.88
2018-05-04T00:02:28.052Z,1009.88
2018-05-04T00:03:27.999Z,1009.90
2018-05-04T00:04:27.934Z,1009.83
2018-05-04T00:05:27.877Z,1009.84
2018-05-04T00:06:27.830Z,1009.83
2018-05-04T00:07:27.779Z,1009.81
2018-05-04T00:08:27.753Z,1009.81
2018-05-04T00:09:27.683Z,1009.84
2018-05-04T00:10:27.637Z,1009.81
2018-05-04T00:11:27.585Z,1009.86
2018-05-04T00:12:27.536Z,1009.78
2018-05-04T00:13:27.514Z,1009.84
2018-05-04T00:14:27.437Z,1009.90
2018-05-04T00:15:27.390Z,1009.87
2018-05-04T00:16:27.339Z,1009.93
2018-05-04T00:17:27.297Z,1009.96
2018-05-04T00:18:27.264Z,1009.99
2018-05-04T00:19:27.188Z,1009.99
2018-05-04T00:20:27.137Z,1009.95
2018-05-04T00:21:27.090Z,1009.96
2018-05-04T00:22:27.041Z,1009.96
2018-05-04T00:23:27.012Z,1010.00
2018-05-04T00:24:26.941Z,1009.96
2018-05-04T00:25:26.892Z,1009.98
2018-05-04T00:26:26.844Z,1010.01
2018-05-04T00:27:26.795Z,1010.04
2018-05-04T00:28:26.782Z,1010.01
2018-05-04T00:29:26.705Z,1010.03
2018-05-04T00:30:26.652Z,1010.01
2018-05-04T00:31:26.593Z,1010.13
2018-05-04T00:32:26.550Z,1010.11
2018-05-04T00:33:26.520Z,1010.09
2018-05-04T00:34:26.448Z,1010.08
2018-05-04T00:35:26.401Z,1010.14
2018-05-04T00:36:26.348Z,1010.14
2018-05-04T00:37:26.304Z,1010.16
2018-05-04T00:38:26.272Z,1010.15
2018-05-04T00:39:26.206Z,1010.20
2018-05-04T00:40:26.156Z,1010.17
2018-05-04T00:41:26.098Z,1010.13
2018-05-04T00:42:26.056Z,1010.14
2018-05-04T00:43:26.026Z,1010.18
2018-05-04T00:44:25.954Z,1010.10
2018-05-04T00:45:25.905Z,1010.13
2018-05-04T00:46:25.855Z,1010.15
2018-05-04T00:47:25.806Z,1010.14
2018-05-04T00:48:25.779Z,1010.11
2018-05-04T00:49:25.709Z,1010.13
2018-05-04T00:50:25.653Z,1010.16
2018-05-04T00:51:25.605Z,1010.16
2018-05-04T00:52:25.558Z,1010.20
2018-05-04T00:53:25.531Z,1010.28
2018-05-04T00:54:25.456Z,1010.25
2018-05-04T00:55:25.409Z,1010.26
2018-05-04T00:56:25.358Z,1010.22
2018-05-04T00:57:25.310Z,1010.26
2018-05-04T00:58:25.285Z,1010.25
2018-05-04T00:59:25.207Z,1010.28
2018-05-04T01:00:25.162Z,1010.22
2018-05-04T01:01:25.110Z,1010.26
2018-05-04T01:02:25.060Z,1010.26
2018-05-04T01:03:25.035Z,1010.27
2018-05-04T01:04:24.963Z,1010.28
2018-05-04T01:05:24.913Z,1010.32
2018-05-04T01:06:24.860Z,1010.36
2018-05-04T01:07:24.813Z,1010.40
2018-05-04T01:08:24.790Z,1010.42
2018-05-04T01:09:24.722Z,1010.42
2018-05-04T01:10:24.665Z,1010.43
2018-05-04T01:11:24.620Z,1010.41
2018-05-04T01:12:24.566Z,1010.44
2018-05-04T01:13:24.544Z,1010.46
2018-05-04T01:14:24.476Z,1010.50
2018-05-04T01:15:24.418Z,1010.50
2018-05-04T01:16:24.372Z,1010.53
2018-05-04T01:17:24.320Z,1010.53
2018-05-04T01:18:24.295Z,1010.47
2018-05-04T01:19:24.219Z,1010.51
2018-05-04T01:20:24.171Z,1010.51
2018-05-04T01:21:24.117Z,1010.58
2018-05-04T01:22:24.071Z,1010.57
2018-05-04T01:23:24.043Z,1010.51
2018-05-04T01:24:23.969Z,1010.57
2018-05-04T01:25:23.925Z,1010.55
2018-05-04T01:26:23.870Z,1010.54
2018-05-04T01:27:23.820Z,1010.58
2018-05-04T01:28:23.796Z,1010.55
2018-05-04T01:29:23.721Z,1010.54
2018-05-04T01:30:23.676Z,1010.60
2018-05-04T01:31:23.624Z,1010.57
2018-05-04T01:32:23.572Z,1010.61
2018-05-04T01:33:23.554Z,1010.58
2018-05-04T01:34:23.475Z,1010.57
2018-05-04T01:35:23.423Z,1010.60
2018-05-04T01:36:23.379Z,1010.53
2018-05-04T01:37:23.327Z,1010.52
2018-05-04T01:38:23.302Z,1010.55
2018-05-04T01:39:23.228Z,1010.56
2018-05-04T01:40:23.175Z,1010.63
2018-05-04T01:41:23.126Z,1010.62
2018-05-04T01:42:23.080Z,1010.69
2018-05-04T01:43:23.054Z,1010.68
2018-05-04T01:44:22.980Z,1010.66
2018-05-04T01:45:30.720Z,1010.67
2018-05-04T01:46:22.882Z,1010.69
2018-05-04T01:47:22.828Z,1010.69
2018-05-04T01:48:22.818Z,1010.69
2018-05-04T01:49:22.731Z,1010.68
2018-05-04T01:50:22.682Z,1010.67
2018-05-04T01:51:22.630Z,1010.67
2018-05-04T01:52:22.580Z,1010.67
2018-05-04T01:53:22.534Z,1010.64
2018-05-04T01:54:22.507Z,1010.66
2018-05-04T01:55:22.430Z,1010.62
2018-05-04T01:56:22.385Z,1010.59
2018-05-04T01:57:22.333Z,1010.65
2018-05-04T01:58:22.285Z,1010.62
2018-05-04T01:59:22.258Z,1010.63
2018-05-04T02:00:22.185Z,1010.64
2018-05-04T02:01:22.136Z,1010.61
2018-05-04T02:02:22.087Z,1010.66
2018-05-04T02:03:22.033Z,1010.65
2018-05-04T02:04:22.008Z,1010.71
2018-05-04T02:05:21.937Z,1010.73
2018-05-04T02:06:21.886Z,1010.70
2018-05-04T02:07:21.838Z,1010.75
2018-05-04T02:08:21.786Z,1010.79
2018-05-04T02:09:21.760Z,1010.77
2018-05-04T02:10:21.693Z,1010.77
2018-05-04T02:11:21.639Z,1010.79
2018-05-04T02:12:21.589Z,1010.78
2018-05-04T02:13:21.545Z,1010.77
2018-05-04T02:14:21.515Z,1010.73
2018-05-04T02:15:21.439Z,1010.79
2018-05-04T02:16:21.393Z,1010.78
2018-05-04T02:17:21.339Z,1010.82
2018-05-04T02:18:21.295Z,1010.88
2018-05-04T02:19:21.265Z,1010.88
2018-05-04T02:20:21.192Z,1010.87
2018-05-04T02:21:21.145Z,1010.88
2018-05-04T02:22:21.092Z,1010.86
2018-05-04T02:23:21.044Z,1010.86
2018-05-04T02:24:21.019Z,1010.84
2018-05-04T02:25:20.945Z,1010.87
2018-05-04T02:26:20.934Z,1010.86
2018-05-04T02:27:20.846Z,1010.86
2018-05-04T02:28:20.798Z,1010.86
2018-05-04T02:29:20.770Z,1010.84
2018-05-04T02:30:20.700Z,1010.87
2018-05-04T02:31:20.648Z,1010.85
2018-05-04T02:32:20.599Z,1010.87
2018-05-04T02:33:20.551Z,1010.86
2018-05-04T02:34:20.523Z,1010.90
2018-05-04T02:35:20.452Z,1010.85
2018-05-04T02:36:20.398Z,1010.90
2018-05-04T02:37:20.350Z,1010.84
2018-05-04T02:38:20.304Z,1010.83
2018-05-04T02:39:20.281Z,1010.85
2018-05-04T02:40:20.206Z,1010.81
2018-05-04T02:41:20.152Z,1010.82
2018-05-04T02:42:20.106Z,1010.77
2018-05-04T02:43:20.058Z,1010.76
2018-05-04T02:44:20.030Z,1010.76
2018-05-04T02:45:19.957Z,1010.73
2018-05-04T02:46:19.903Z,1010.75
2018-05-04T02:47:19.857Z,1010.76
2018-05-04T02:48:19.809Z,1010.69
2018-05-04T02:49:19.779Z,1010.74
2018-05-04T02:50:19.712Z,1010.76
2018-05-04T02:51:19.658Z,1010.76
2018-05-04T02:52:19.611Z,1010.74
2018-05-04T02:53:19.556Z,1010.68
2018-05-04T02:54:19.534Z,1010.74
2018-05-04T02:55:19.561Z,1010.68
2018-05-04T02:56:19.413Z,1010.69
2018-05-04T02:57:19.361Z,1010.70
2018-05-04T02:58:19.310Z,1010.70
2018-05-04T02:59:19.283Z,1010.65
2018-05-04T03:00:19.211Z,1010.70
2018-05-04T03:01:19.164Z,1010.65
2018-05-04T03:02:19.113Z,1010.67
2018-05-04T03:03:19.065Z,1010.71
2018-05-04T03:04:19.039Z,1010.70
2018-05-04T03:05:18.965Z,1010.68
2018-05-04T03:06:18.919Z,1010.70
2018-05-04T03:07:18.864Z,1010.70
2018-05-04T03:08:18.829Z,1010.67
2018-05-04T03:09:18.794Z,1010.65
2018-05-04T03:10:18.716Z,1010.59
2018-05-04T03:11:18.666Z,1010.58
2018-05-04T03:12:18.619Z,1010.52
2018-05-04T03:13:18.568Z,1010.56
2018-05-04T03:14:18.541Z,1010.57
2018-05-04T03:15:18.487Z,1010.59
2018-05-04T03:16:18.419Z,1010.60
2018-05-04T03:17:18.368Z,1010.58
2018-05-04T03:18:18.319Z,1010.61
2018-05-04T03:19:18.294Z,1010.61
2018-05-04T03:20:18.220Z,1010.62
2018-05-04T03:21:18.173Z,1010.57
2018-05-04T03:22:18.128Z,1010.60
2018-05-04T03:23:18.071Z,1010.56
2018-05-04T03:24:18.045Z,1010.55
2018-05-04T03:25:17.973Z,1010.56
2018-05-04T03:26:17.924Z,1010.52
2018-05-04T03:27:17.873Z,1010.52
2018-05-04T03:28:17.824Z,1010.48
2018-05-04T03:29:17.799Z,1010.46
2018-05-04T03:30:17.727Z,1010.44
2018-05-04T03:31:17.675Z,1010.42
2018-05-04T03:32:17.623Z,1010.42
2018-05-04T03:33:17.574Z,1010.41
2018-05-04T03:34:17.558Z,1010.40
2018-05-04T03:35:17.475Z,1010.40
2018-05-04T03:36:17.425Z,1010.44
2018-05-04T03:37:17.375Z,1010.43
2018-05-04T03:38:17.330Z,1010.40
2018-05-04T03:39:17.274Z,1010.43
2018-05-04T03:40:17.246Z,1010.39
2018-05-04T03:41:17.176Z,1010.43
2018-05-04T03:42:17.127Z,1010.42
2018-05-04T03:43:17.075Z,1010.41
2018-05-04T03:44:17.026Z,1010.40
2018-05-04T03:45:17.002Z,1010.39
2018-05-04T03:46:16.934Z,1010.40
2018-05-04T03:47:16.878Z,1010.43
2018-05-04T03:48:16.830Z,1010.41
2018-05-04T03:49:16.780Z,1010.42
2018-05-04T03:50:16.756Z,1010.40
2018-05-04T03:51:16.682Z,1010.41
2018-05-04T03:52:16.632Z,1010.44
2018-05-04T03:53:16.581Z,1010.45
2018-05-04T03:54:16.531Z,1010.47
2018-05-04T03:55:16.503Z,1010.45
2018-05-04T03:56:16.433Z,1010.44
2018-05-04T03:57:16.382Z,1010.40
2018-05-04T03:58:16.330Z,1010.39
2018-05-04T03:59:16.287Z,1010.39
2018-05-04T04:00:16.257Z,1010.43
2018-05-04T04:01:16.189Z,1010.40
2018-05-04T04:02:16.137Z,1010.40
2018-05-04T04:03:16.085Z,1010.49
2018-05-04T04:04:16.034Z,1010.50
2018-05-04T04:05:16.010Z,1010.56
2018-05-04T04:06:15.939Z,1010.56
2018-05-04T04:07:15.904Z,1010.56
2018-05-04T04:08:15.837Z,1010.59
2018-05-04T04:09:15.787Z,1010.57
2018-05-04T04:10:15.760Z,1010.58
2018-05-04T04:11:15.686Z,1010.58
2018-05-04T04:12:15.634Z,1010.60
2018-05-04T04:13:15.585Z,1010.64
2018-05-04T04:14:15.538Z,1010.61
2018-05-04T04:15:15.510Z,1010.62
2018-05-04T04:16:15.435Z,1010.65
2018-05-04T04:17:15.387Z,1010.68
2018-05-04T04:18:15.338Z,1010.66
2018-05-04T04:19:15.289Z,1010.67
2018-05-04T04:20:15.274Z,1010.61
2018-05-04T04:21:15.188Z,1010.67
2018-05-04T04:22:15.139Z,1010.66
2018-05-04T04:23:15.090Z,1010.64
2018-05-04T04:24:15.042Z,1010.61
2018-05-04T04:25:15.016Z,1010.62
2018-05-04T04:26:14.945Z,1010.62
2018-05-04T04:27:14.897Z,1010.59
2018-05-04T04:28:14.887Z,1010.61
2018-05-04T04:29:14.787Z,1010.66
2018-05-04T04:30:14.766Z,1010.69
2018-05-04T04:31:14.690Z,1010.70
2018-05-04T04:32:14.641Z,1010.69
2018-05-04T04:33:14.595Z,1010.71
2018-05-04T04:34:14.541Z,1010.71
2018-05-04T04:35:14.518Z,1010.72
2018-05-04T04:36:14.446Z,1010.77
2018-05-04T04:37:14.397Z,1010.80
2018-05-04T04:38:14.342Z,1010.83
2018-05-04T04:39:14.292Z,1010.84
2018-05-04T04:40:14.268Z,1010.84
2018-05-04T04:41:14.191Z,1010.92
2018-05-04T04:42:14.148Z,1010.84
2018-05-04T04:43:14.092Z,1010.90
2018-05-04T04:44:14.046Z,1010.90
2018-05-04T04:45:14.017Z,1010.94
2018-05-04T04:46:13.943Z,1010.94
2018-05-04T04:47:13.895Z,1010.95
2018-05-04T04:48:13.848Z,1010.93
2018-05-04T04:49:13.797Z,1010.92
2018-05-04T04:50:13.770Z,1010.92
2018-05-04T04:51:13.704Z,1010.94
2018-05-04T04:52:13.648Z,1010.96
2018-05-04T04:53:13.602Z,1010.95
2018-05-04T04:54:13.552Z,1010.98
2018-05-04T04:55:13.541Z,1010.98
2018-05-04T04:56:13.448Z,1011.02
2018-05-04T04:57:13.406Z,1011.06
2018-05-04T04:58:13.351Z,1011.10
2018-05-04T04:59:13.305Z,1011.08
2018-05-04T05:00:13.267Z,1011.12
2018-05-04T05:01:13.229Z,1011.15
2018-05-04T05:02:13.165Z,1011.16
2018-05-04T05:03:13.106Z,1011.18
2018-05-04T05:04:13.055Z,1011.23
2018-05-04T05:05:13.011Z,1011.25
2018-05-04T05:06:12.983Z,1011.28
2018-05-04T05:07:12.907Z,1011.27
2018-05-04T05:08:12.860Z,1011.29
2018-05-04T05:09:12.811Z,1011.29
2018-05-04T05:10:12.757Z,1011.30
2018-05-04T05:11:12.731Z,1011.27
2018-05-04T05:12:12.657Z,1011.30
2018-05-04T05:13:12.612Z,1011.30
2018-05-04T05:14:12.565Z,1011.32
2018-05-04T05:15:12.509Z,1011.35
2018-05-04T05:16:12.490Z,1011.31
2018-05-04T05:17:12.417Z,1011.34
2018-05-04T05:18:12.371Z,1011.31
2018-05-04T05:19:12.320Z,1011.32
2018-05-04T05:20:12.271Z,1011.37
2018-05-04T05:21:12.246Z,1011.37
2018-05-04T05:22:12.172Z,1011.37
2018-05-04T05:23:12.121Z,1011.42
2018-05-04T05:24:12.074Z,1011.41
2018-05-04T05:25:12.024Z,1011.49
2018-05-04T05:26:12.001Z,1011.45
2018-05-04T05:27:11.927Z,1011.43
2018-05-04T05:28:11.881Z,1011.44
2018-05-04T05:29:11.831Z,1011.45
2018-05-04T05:30:11.787Z,1011.45
2018-05-04T05:31:11.757Z,1011.47
2018-05-04T05:32:11.683Z,1011.48
2018-05-04T05:33:11.636Z,1011.50
2018-05-04T05:34:11.596Z,1011.51
2018-05-04T05:35:11.547Z,1011.50
2018-05-04T05:36:11.521Z,1011.54
2018-05-04T05:37:11.450Z,1011.53
2018-05-04T05:38:11.407Z,1011.56
2018-05-04T05:39:11.347Z,1011.58
2018-05-04T05:40:11.301Z,1011.64
2018-05-04T05:41:11.277Z,1011.64
2018-05-04T05:42:11.211Z,1011.67
2018-05-04T05:43:11.157Z,1011.72
2018-05-04T05:44:11.110Z,1011.73
2018-05-04T05:45:11.064Z,1011.76
2018-05-04T05:46:11.050Z,1011.78
2018-05-04T05:47:10.968Z,1011.76
2018-05-04T05:48:10.920Z,1011.80
2018-05-04T05:49:10.870Z,1011.80
2018-05-04T05:50:10.829Z,1011.80
2018-05-04T05:51:10.803Z,1011.81
2018-05-04T05:52:10.729Z,1011.83
2018-05-04T05:53:10.681Z,1011.82
2018-05-04T05:54:10.633Z,1011.82
2018-05-04T05:55:10.591Z,1011.81
2018-05-04T05:56:10.567Z,1011.81
2018-05-04T05:57:10.490Z,1011.81
2018-05-04T05:58:10.631Z,1011.80
2018-05-04T05:59:10.396Z,1011.78
2018-05-04T06:00:10.348Z,1011.80
2018-05-04T06:01:10.321Z,1011.80
2018-05-04T06:02:10.253Z,1011.83
2018-05-04T06:03:10.205Z,1011.83
2018-05-04T06:04:10.257Z,1011.81
2018-05-04T06:05:10.112Z,1011.85
2018-05-04T06:06:10.088Z,1011.89
2018-05-04T06:07:10.019Z,1011.85
2018-05-04T06:08:09.969Z,1011.90
2018-05-04T06:09:09.924Z,1011.89
2018-05-04T06:10:09.874Z,1011.91
2018-05-04T06:11:09.851Z,1011.91
2018-05-04T06:12:09.779Z,1011.93
2018-05-04T06:13:09.736Z,1011.90
2018-05-04T06:14:09.684Z,1011.87
2018-05-04T06:15:09.677Z,1011.88
2018-05-04T06:16:09.614Z,1011.85
2018-05-04T06:17:09.546Z,1011.86
2018-05-04T06:18:09.499Z,1011.84
2018-05-04T06:19:09.453Z,1011.84
2018-05-04T06:20:09.413Z,1011.84
2018-05-04T06:21:09.381Z,1011.82
2018-05-04T06:22:09.308Z,1011.84
2018-05-04T06:23:09.263Z,1011.85
2018-05-04T06:24:09.214Z,1011.85
2018-05-04T06:25:09.236Z,1011.84
2018-05-04T06:26:09.146Z,1011.86
2018-05-04T06:27:09.073Z,1011.83
2018-05-04T06:28:09.031Z,1011.85
2018-05-04T06:29:08.980Z,1011.83
2018-05-04T06:30:08.937Z,1011.81
2018-05-04T06:31:08.910Z,1011.83
2018-05-04T06:32:08.841Z,1011.76
2018-05-04T06:33:08.795Z,1011.75
2018-05-04T06:34:08.749Z,1011.77
2018-05-04T06:35:08.703Z,1011.75
2018-05-04T06:36:08.683Z,1011.76
2018-05-04T06:37:08.628Z,1011.79
2018-05-04T06:38:08.565Z,1011.80
2018-05-04T06:39:08.518Z,1011.79
2018-05-04T06:40:08.469Z,1011.80
2018-05-04T06:41:08.423Z,1011.76
2018-05-04T06:42:08.401Z,1011.81
2018-05-04T06:43:08.330Z,1011.79
2018-05-04T06:44:08.285Z,1011.82
2018-05-04T06:45:08.239Z,1011.80
2018-05-04T06:46:08.190Z,1011.85
2018-05-04T06:47:08.168Z,1011.89
2018-05-04T06:48:08.099Z,1011.90
2018-05-04T06:49:08.049Z,1011.89
2018-05-04T06:50:08.005Z,1011.88
2018-05-04T06:51:07.965Z,1011.87
2018-05-04T06:52:07.943Z,1011.87
2018-05-04T06:53:07.914Z,1011.87
2018-05-04T06:54:07.821Z,1011.93
2018-05-04T06:55:07.789Z,1011.92
2018-05-04T06:56:07.730Z,1011.89
2018-05-04T06:57:07.707Z,1011.92
2018-05-04T06:58:07.637Z,1011.93
2018-05-04T06:59:07.589Z,1011.97
2018-05-04T07:00:07.543Z,1011.98
2018-05-04T07:01:07.497Z,1011.97
2018-05-04T07:02:07.478Z,1011.98
2018-05-04T07:03:07.406Z,1012.00
2018-05-04T07:04:07.364Z,1011.96
2018-05-04T07:05:07.314Z,1011.96
2018-05-04T07:06:07.271Z,1011.94
2018-05-04T07:07:07.246Z,1011.96
2018-05-04T07:08:07.176Z,1011.97
2018-05-04T07:09:07.131Z,1012.02
2018-05-04T07:10:07.083Z,1012.01
2018-05-04T07:11:07.039Z,1011.98
2018-05-04T07:12:07.017Z,1012.02
2018-05-04T07:13:06.962Z,1012.04
2018-05-04T07:14:06.901Z,1012.05
2018-05-04T07:15:06.903Z,1012.06
2018-05-04T07:16:06.806Z,1012.03
2018-05-04T07:17:06.791Z,1012.03
2018-05-04T07:18:06.718Z,1012.05
2018-05-04T07:19:06.678Z,1012.00
2018-05-04T07:20:06.633Z,1011.97
2018-05-04T07:21:06.582Z,1011.99
2018-05-04T07:22:06.612Z,1012.01
2018-05-04T07:23:06.491Z,1012.06
2018-05-04T07:24:06.452Z,1012.06
2018-05-04T07:25:06.398Z,1012.01
2018-05-04T07:26:06.354Z,1012.03
2018-05-04T07:27:06.328Z,1012.06
2018-05-04T07:28:06.260Z,1012.03
2018-05-04T07:29:06.215Z,1012.04
2018-05-04T07:30:06.169Z,1012.03
2018-05-04T07:31:06.121Z,1012.02
2018-05-04T07:32:06.098Z,1012.03
2018-05-04T07:33:06.030Z,1012.07
2018-05-04T07:34:05.985Z,1012.03
2018-05-04T07:35:05.940Z,1012.02
2018-05-04T07:36:05.924Z,1012.00
2018-05-04T07:37:05.873Z,1012.01
2018-05-04T07:38:05.805Z,1011.98
2018-05-04T07:39:05.753Z,1012.00
2018-05-04T07:40:05.715Z,1011.96
2018-05-04T07:41:05.663Z,1011.97
2018-05-04T07:42:05.645Z,1011.97
2018-05-04T07:43:05.621Z,1011.92
2018-05-04T07:44:05.528Z,1011.93
2018-05-04T07:45:05.485Z,1011.91
2018-05-04T07:46:05.711Z,1011.94
2018-05-04T07:47:05.419Z,1011.94
2018-05-04T07:48:05.346Z,1011.94
2018-05-04T07:49:05.300Z,1011.93
2018-05-04T07:50:12.845Z,1011.97
2018-05-04T07:51:05.209Z,1011.94
2018-05-04T07:52:05.187Z,1011.92
2018-05-04T07:53:05.117Z,1011.94
2018-05-04T07:54:05.071Z,1011.95
2018-05-04T07:55:05.028Z,1011.91
2018-05-04T07:56:04.980Z,1011.93
2018-05-04T07:57:04.957Z,1011.91
2018-05-04T07:58:04.890Z,1011.94
2018-05-04T07:59:04.854Z,1011.93
2018-05-04T08:00:04.797Z,1011.95
2018-05-04T08:01:04.776Z,1011.96
2018-05-04T08:02:04.735Z,1011.98
2018-05-04T08:03:04.689Z,1011.99
2018-05-04T08:04:04.625Z,1012.01
2018-05-04T08:05:04.572Z,1012.00
2018-05-04T08:06:04.526Z,1012.01
2018-05-04T08:07:04.480Z,1012.00
2018-05-04T08:08:04.461Z,1012.01
2018-05-04T08:09:04.391Z,1012.02
2018-05-04T08:10:04.348Z,1011.98
2018-05-04T08:11:04.300Z,1011.96
2018-05-04T08:12:04.257Z,1011.96
2018-05-04T08:13:04.233Z,1011.95
2018-05-04T08:14:04.189Z,1011.95
2018-05-04T08:15:04.154Z,1012.01
2018-05-04T08:16:04.077Z,1012.00
2018-05-04T08:17:04.036Z,1012.01
2018-05-04T08:18:03.985Z,1012.01
2018-05-04T08:19:03.943Z,1011.99
2018-05-04T08:20:03.941Z,1011.99
2018-05-04T08:21:03.880Z,1012.00
2018-05-04T08:22:03.808Z,1011.99
2018-05-04T08:23:03.757Z,1012.02
2018-05-04T08:24:03.720Z,1011.98
2018-05-04T08:25:03.672Z,1011.99
2018-05-04T08:26:03.651Z,1011.99
2018-05-04T08:27:03.579Z,1011.98
2018-05-04T08:28:03.538Z,1011.98
2018-05-04T08:29:03.491Z,1012.01
2018-05-04T08:30:03.465Z,1012.04
2018-05-04T08:31:03.424Z,1012.00
2018-05-04T08:32:03.351Z,1012.02
2018-05-04T08:33:03.312Z,1012.04
2018-05-04T08:34:03.271Z,1012.00
2018-05-04T08:35:03.225Z,1011.98
2018-05-04T08:36:03.197Z,1011.94
2018-05-04T08:37:03.130Z,1011.97
2018-05-04T08:38:03.085Z,1011.99
2018-05-04T08:39:03.041Z,1011.93
2018-05-04T08:40:02.996Z,1011.96
2018-05-04T08:41:02.975Z,1011.97
2018-05-04T08:42:10.044Z,1011.97
2018-05-04T08:43:02.929Z,1012.00
2018-05-04T08:44:02.817Z,1012.04
2018-05-04T08:45:02.772Z,1012.05
2018-05-04T08:46:02.755Z,1012.01
2018-05-04T08:47:02.688Z,1012.00
2018-05-04T08:48:02.648Z,1012.03
2018-05-04T08:49:02.592Z,1011.99
2018-05-04T08:50:02.563Z,1012.02
2018-05-04T08:51:02.546Z,1012.02
2018-05-04T08:52:02.482Z,1012.01
2018-05-04T08:53:02.410Z,1012.01
2018-05-04T08:54:02.369Z,1011.98
2018-05-04T08:55:02.324Z,1012.00
2018-05-04T08:56:02.290Z,1011.94
2018-05-04T08:57:02.272Z,1011.97
2018-05-04T08:58:02.193Z,1012.01
2018-05-04T08:59:02.142Z,1012.00
2018-05-04T09:00:02.103Z,1011.96
2018-05-04T09:01:02.054Z,1011.97
2018-05-04T09:02:02.036Z,1011.96
2018-05-04T09:03:01.962Z,1011.97
2018-05-04T09:04:01.921Z,1011.96
2018-05-04T09:05:01.876Z,1011.99
2018-05-04T09:06:01.831Z,1011.98
2018-05-04T09:07:01.807Z,1011.97
2018-05-04T09:08:01.743Z,1011.97
2018-05-04T09:09:01.697Z,1011.96
2018-05-04T09:10:01.653Z,1011.98
2018-05-04T09:11:01.607Z,1011.98
2018-05-04T09:12:01.586Z,1011.97
2018-05-04T09:13:01.519Z,1011.98
2018-05-04T09:14:01.474Z,1011.90
2018-05-04T09:15:01.427Z,1011.95
2018-05-04T09:16:01.381Z,1011.92
2018-05-04T09:17:01.359Z,1011.96
2018-05-04T09:18:01.296Z,1011.98
2018-05-04T09:19:01.249Z,1011.97
2018-05-04T09:20:01.204Z,1011.94
2018-05-04T09:21:01.161Z,1011.93
2018-05-04T09:22:01.134Z,1012.02
2018-05-04T09:23:01.073Z,1011.92
2018-05-04T09:24:01.023Z,1011.93
2018-05-04T09:25:00.978Z,1011.89
2018-05-04T09:26:00.931Z,1011.92
2018-05-04T09:27:00.914Z,1011.92
2018-05-04T09:28:00.848Z,1011.83
2018-05-04T09:29:00.802Z,1011.89
2018-05-04T09:30:00.755Z,1011.91
2018-05-04T09:31:00.746Z,1011.86
2018-05-04T09:32:07.792Z,1011.87
2018-05-04T09:33:00.619Z,1011.84
2018-05-04T09:34:00.576Z,1011.85
2018-05-04T09:35:00.534Z,1011.87
2018-05-04T09:36:00.488Z,1011.87
2018-05-04T09:37:00.465Z,1011.89
2018-05-04T09:38:00.400Z,1011.91
2018-05-04T09:39:00.354Z,1011.86
2018-05-04T09:40:00.308Z,1011.89
2018-05-04T09:41:00.262Z,1011.86
2018-05-04T09:42:00.242Z,1011.91
2018-05-04T09:43:00.173Z,1011.91
2018-05-04T09:44:00.125Z,1011.89
2018-05-04T09:45:00.082Z,1011.96
2018-05-04T09:46:00.039Z,1011.94
2018-05-04T09:47:00.044Z,1011.94
2018-05-04T09:47:59.946Z,1011.97
2018-05-04T09:48:59.945Z,1011.90
2018-05-04T09:49:59.859Z,1011.92
2018-05-04T09:50:59.818Z,1011.88
2018-05-04T09:51:59.771Z,1011.88
2018-05-04T09:52:59.747Z,1011.90
2018-05-04T09:53:59.683Z,1011.97
2018-05-04T09:54:59.635Z,1011.90
2018-05-04T09:55:59.648Z,1011.90
2018-05-04T09:56:59.544Z,1011.85
2018-05-04T09:57:59.527Z,1011.82
2018-05-04T09:58:59.532Z,1011.82
2018-05-04T09:59:59.413Z,1011.82
2018-05-04T10:00:59.369Z,1011.81
2018-05-04T10:01:59.323Z,1011.79
2018-05-04T10:02:59.300Z,1011.79
2018-05-04T10:03:59.254Z,1011.79
2018-05-04T10:04:59.188Z,1011.81
2018-05-04T10:05:59.140Z,1011.79
2018-05-04T10:06:59.099Z,1011.85
2018-05-04T10:07:59.077Z,1011.80
2018-05-04T10:08:59.008Z,1011.81
2018-05-04T10:09:59.035Z,1011.80
2018-05-04T10:10:58.918Z,1011.75
2018-05-04T10:11:58.875Z,1011.80
2018-05-04T10:12:58.857Z,1011.78
2018-05-04T10:13:58.786Z,1011.78
2018-05-04T10:14:58.738Z,1011.74
2018-05-04T10:15:58.767Z,1011.72
2018-05-04T10:16:58.649Z,1011.78
2018-05-04T10:17:58.628Z,1011.77
2018-05-04T10:18:58.563Z,1011.71
2018-05-04T10:19:58.524Z,1011.66
2018-05-04T10:20:58.488Z,1011.69
2018-05-04T10:21:58.514Z,1011.69
2018-05-04T10:22:58.407Z,1011.65
2018-05-04T10:23:58.341Z,1011.69
2018-05-04T10:24:58.294Z,1011.67
2018-05-04T10:25:58.248Z,1011.67
2018-05-04T10:26:58.204Z,1011.70
2018-05-04T10:27:58.191Z,1011.70
2018-05-04T10:28:58.129Z,1011.71
2018-05-04T10:29:58.071Z,1011.73
2018-05-04T10:30:58.029Z,1011.68
2018-05-04T10:31:57.983Z,1011.71
2018-05-04T10:32:57.965Z,1011.77
2018-05-04T10:33:57.894Z,1011.74
2018-05-04T10:34:57.852Z,1011.76
2018-05-04T10:35:57.804Z,1011.77
2018-05-04T10:36:57.762Z,1011.78
2018-05-04T10:37:57.749Z,1011.79
2018-05-04T10:38:57.818Z,1011.75
2018-05-04T10:39:57.630Z,1011.71
2018-05-04T10:40:57.586Z,1011.75
2018-05-04T10:41:57.544Z,1011.75
2018-05-04T10:42:57.516Z,1011.78
2018-05-04T10:43:57.455Z,1011.74
2018-05-04T10:44:57.409Z,1011.82
2018-05-04T10:45:57.362Z,1011.83
2018-05-04T10:46:57.316Z,1011.88
2018-05-04T10:47:57.298Z,1011.83
2018-05-04T10:48:57.264Z,1011.80
2018-05-04T10:49:57.184Z,1011.78
2018-05-04T10:50:57.155Z,1011.77
2018-05-04T10:51:57.132Z,1011.76
2018-05-04T10:52:57.077Z,1011.80
2018-05-04T10:53:57.012Z,1011.79
2018-05-04T10:54:56.967Z,1011.80
2018-05-04T10:55:56.921Z,1011.74
2018-05-04T10:56:56.876Z,1011.67
2018-05-04T10:57:56.859Z,1011.69
2018-05-04T10:58:56.785Z,1011.67
2018-05-04T10:59:56.743Z,1011.73
2018-05-04T11:00:56.696Z,1011.70
2018-05-04T11:01:56.659Z,1011.72
2018-05-04T11:02:56.630Z,1011.73
2018-05-04T11:03:56.565Z,1011.72
2018-05-04T11:04:56.520Z,1011.66
2018-05-04T11:05:56.473Z,1011.69
2018-05-04T11:06:56.426Z,1011.71
2018-05-04T11:07:56.413Z,1011.76
2018-05-04T11:08:56.337Z,1011.76
2018-05-04T11:09:56.296Z,1011.73
2018-05-04T11:10:56.250Z,1011.73
2018-05-04T11:11:56.216Z,1011.83
2018-05-04T11:13:03.220Z,1011.76
2018-05-04T11:13:56.119Z,1011.74
2018-05-04T11:14:56.071Z,1011.76
2018-05-04T11:15:56.033Z,1011.74
2018-05-04T11:16:55.983Z,1011.76
2018-05-04T11:17:55.966Z,1011.75
2018-05-04T11:18:55.893Z,1011.77
2018-05-04T11:19:55.852Z,1011.81
2018-05-04T11:20:55.806Z,1011.88
2018-05-04T11:21:55.763Z,1011.85
2018-05-04T11:22:55.737Z,1011.88
2018-05-04T11:24:03.554Z,1011.84
2018-05-04T11:24:55.623Z,1011.82
2018-05-04T11:25:55.594Z,1011.84
2018-05-04T11:26:55.539Z,1011.89
2018-05-04T11:27:55.517Z,1011.82
2018-05-04T11:28:55.448Z,1011.85
2018-05-04T11:29:55.400Z,1011.88
2018-05-04T11:30:55.360Z,1011.87
2018-05-04T11:31:55.313Z,1011.83
2018-05-04T11:32:55.294Z,1011.85
2018-05-04T11:33:55.227Z,1011.90
2018-05-04T11:34:55.180Z,1011.82
2018-05-04T11:35:55.132Z,1011.80
2018-05-04T11:36:55.089Z,1011.80
2018-05-04T11:37:55.065Z,1011.80
2018-05-04T11:38:55.020Z,1011.77
2018-05-04T11:39:54.950Z,1011.83
2018-05-04T11:40:54.906Z,1011.87
2018-05-04T11:41:54.864Z,1011.79
2018-05-04T11:42:54.844Z,1011.79
2018-05-04T11:43:54.773Z,1011.80
2018-05-04T11:44:54.727Z,1011.79
2018-05-04T11:45:54.687Z,1011.79
2018-05-04T11:46:54.642Z,1011.83
2018-05-04T11:47:54.614Z,1011.82
2018-05-04T11:48:54.547Z,1011.86
2018-05-04T11:49:54.500Z,1011.91
2018-05-04T11:50:54.532Z,1011.81
2018-05-04T11:51:54.410Z,1011.88
2018-05-04T11:52:54.392Z,1011.92
2018-05-04T11:53:54.322Z,1011.92
2018-05-04T11:54:54.278Z,1011.89
2018-05-04T11:55:54.233Z,1011.90
2018-05-04T11:56:54.190Z,1011.90
2018-05-04T11:57:54.161Z,1011.87
2018-05-04T11:58:54.096Z,1011.89
2018-05-04T11:59:54.050Z,1011.91
2018-05-04T12:00:54.003Z,1011.84
2018-05-04T12:01:53.962Z,1011.87
2018-05-04T12:02:53.943Z,1011.92
2018-05-04T12:03:53.873Z,1011.90
2018-05-04T12:04:53.908Z,1011.86